Flag, Arkansas
Current Conditions -  °F | °C
As of 3:35 AM on Thursday 18 Dec 2014 (Local Time) from KCCA Reporting Station
Haze Haze  
Wind Chill: 36°   Ceiling: 1200
Heat Index: 36°   Visibility: 6mi
Dew Point: 34°   Wind: 0mph
Humidity: 93%   Direction: NA
Pressure: 30.23"   Gusts: NA
Location:  35.8223°N, 92.5849°W
Report Text: KCCA 180935Z AUTO 00000KT 6SM BR FEW008 BKN012 OVC041 02/01 A3023 RMK AO2
Loading
Personal Weather Stations






























Interactive Weather Map New forecast layout! Learn more

10-Day Weather Forecast

Advertisements
Track Severe Weather on mobile